sensor_id;sensor_type;location;lat;lon;timestamp;pressure;altitude;pressure_sealevel;temperature;humidity
37634;BME280;32048;49.902;22.508;2023-05-16T00:00:39;98164.97;;;11.95;100.00
37634;BME280;32048;49.902;22.508;2023-05-16T00:03:23;98174.81;;;11.93;100.00
37634;BME280;32048;49.902;22.508;2023-05-16T00:05:49;98174.28;;;11.88;100.00
37634;BME280;32048;49.902;22.508;2023-05-16T00:08:16;98173.72;;;11.82;100.00
37634;BME280;32048;49.902;22.508;2023-05-16T00:10:43;98167.88;;;11.77;100.00
37634;BME280;32048;49.902;22.508;2023-05-16T00:13:10;98170.09;;;11.71;100.00
37634;BME280;32048;49.902;22.508;2023-05-16T00:15:37;98172.63;;;11.72;100.00
37634;BME280;32048;49.902;22.508;2023-05-16T00:18:05;98172.31;;;11.77;100.00
37634;BME280;32048;49.902;22.508;2023-05-16T00:20:32;98178.25;;;11.80;100.00
37634;BME280;32048;49.902;22.508;2023-05-16T00:23:00;98189.50;;;11.84;100.00
37634;BME280;32048;49.902;22.508;2023-05-16T00:25:27;98183.06;;;11.88;100.00
37634;BME280;32048;49.902;22.508;2023-05-16T00:27:54;98182.56;;;11.96;100.00
37634;BME280;32048;49.902;22.508;2023-05-16T00:30:21;98183.75;;;12.04;100.00
37634;BME280;32048;49.902;22.508;2023-05-16T00:32:48;98188.41;;;12.14;100.00
37634;BME280;32048;49.902;22.508;2023-05-16T00:35:15;98186.22;;;12.20;100.00
37634;BME280;32048;49.902;22.508;2023-05-16T00:37:42;98193.75;;;12.26;100.00
37634;BME280;32048;49.902;22.508;2023-05-16T00:40:09;98192.69;;;12.29;100.00
37634;BME280;32048;49.902;22.508;2023-05-16T00:42:37;98194.03;;;12.35;100.00
37634;BME280;32048;49.902;22.508;2023-05-16T00:45:04;98189.50;;;12.37;100.00
37634;BME280;32048;49.902;22.508;2023-05-16T00:47:32;98191.94;;;12.40;100.00
37634;BME280;32048;49.902;22.508;2023-05-16T00:50:00;98198.28;;;12.37;100.00
37634;BME280;32048;49.902;22.508;2023-05-16T00:52:27;98197.53;;;12.35;100.00
37634;BME280;32048;49.902;22.508;2023-05-16T00:54:54;98198.59;;;12.33;100.00
37634;BME280;32048;49.902;22.508;2023-05-16T00:57:21;98205.91;;;12.29;100.00
37634;BME280;32048;49.902;22.508;2023-05-16T00:59:49;98218.59;;;12.24;100.00
37634;BME280;32048;49.902;22.508;2023-05-16T01:02:16;98218.81;;;12.21;100.00
37634;BME280;32048;49.902;22.508;2023-05-16T01:04:43;98213.81;;;12.16;100.00
37634;BME280;32048;49.902;22.508;2023-05-16T01:07:11;98215.06;;;12.11;100.00
37634;BME280;32048;49.902;22.508;2023-05-16T01:09:38;98223.31;;;12.06;100.00
37634;BME280;32048;49.902;22.508;2023-05-16T01:28:01;98254.66;;;11.85;100.00
37634;BME280;32048;49.902;22.508;2023-05-16T01:30:31;98259.28;;;11.81;100.00
37634;BME280;32048;49.902;22.508;2023-05-16T01:32:59;98257.06;;;11.75;100.00
37634;BME280;32048;49.902;22.508;2023-05-16T01:35:26;98247.72;;;11.70;100.00
37634;BME280;32048;49.902;22.508;2023-05-16T01:43:33;98242.66;;;11.52;100.00
37634;BME280;32048;49.902;22.508;2023-05-16T01:46:08;98249.97;;;11.49;100.00
37634;BME280;32048;49.902;22.508;2023-05-16T01:49:00;98242.31;;;11.44;100.00
37634;BME280;32048;49.902;22.508;2023-05-16T01:51:23;98232.03;;;11.39;100.00
37634;BME280;32048;49.902;22.508;2023-05-16T01:53:53;98235.91;;;11.34;100.00
37634;BME280;32048;49.902;22.508;2023-05-16T01:56:24;98234.59;;;11.27;100.00
37634;BME280;32048;49.902;22.508;2023-05-16T01:58:52;98241.13;;;11.21;100.00
37634;BME280;32048;49.902;22.508;2023-05-16T02:01:20;98238.13;;;11.13;100.00
37634;BME280;32048;49.902;22.508;2023-05-16T02:03:47;98253.50;;;11.06;100.00
37634;BME280;32048;49.902;22.508;2023-05-16T02:06:14;98246.72;;;11.02;100.00
37634;BME280;32048;49.902;22.508;2023-05-16T02:08:41;98246.91;;;10.99;100.00
37634;BME280;32048;49.902;22.508;2023-05-16T02:11:08;98254.16;;;10.95;100.00
37634;BME280;32048;49.902;22.508;2023-05-16T02:13:35;98257.00;;;10.92;100.00
37634;BME280;32048;49.902;22.508;2023-05-16T02:16:02;98258.13;;;10.88;100.00
37634;BME280;32048;49.902;22.508;2023-05-16T02:18:30;98261.13;;;10.82;100.00
37634;BME280;32048;49.902;22.508;2023-05-16T02:20:57;98260.66;;;10.75;100.00
37634;BME280;32048;49.902;22.508;2023-05-16T02:23:24;98263.03;;;10.66;100.00
37634;BME280;32048;49.902;22.508;2023-05-16T02:25:51;98263.38;;;10.59;100.00
37634;BME280;32048;49.902;22.508;2023-05-16T02:28:18;98275.75;;;10.59;100.00
37634;BME280;32048;49.902;22.508;2023-05-16T02:30:45;98271.59;;;10.55;100.00
37634;BME280;32048;49.902;22.508;2023-05-16T02:33:12;98276.19;;;10.51;100.00
37634;BME280;32048;49.902;22.508;2023-05-16T02:35:39;98277.41;;;10.46;100.00
37634;BME280;32048;49.902;22.508;2023-05-16T02:38:06;98278.72;;;10.38;100.00
37634;BME280;32048;49.902;22.508;2023-05-16T02:43:23;98284.94;;;10.22;100.00
37634;BME280;32048;49.902;22.508;2023-05-16T02:45:50;98288.31;;;10.09;100.00
37634;BME280;32048;49.902;22.508;2023-05-16T02:48:18;98287.94;;;9.99;100.00
37634;BME280;32048;49.902;22.508;2023-05-16T02:50:45;98298.00;;;9.93;100.00
37634;BME280;32048;49.902;22.508;2023-05-16T02:53:12;98292.16;;;9.88;100.00
37634;BME280;32048;49.902;22.508;2023-05-16T02:55:39;98282.81;;;9.82;100.00
37634;BME280;32048;49.902;22.508;2023-05-16T02:58:06;98284.75;;;9.78;100.00
37634;BME280;32048;49.902;22.508;2023-05-16T03:00:33;98287.59;;;9.75;100.00
37634;BME280;32048;49.902;22.508;2023-05-16T03:03:00;98291.06;;;9.76;100.00
37634;BME280;32048;49.902;22.508;2023-05-16T03:05:28;98291.91;;;9.76;100.00
37634;BME280;32048;49.902;22.508;2023-05-16T03:07:55;98286.56;;;9.78;100.00
37634;BME280;32048;49.902;22.508;2023-05-16T03:10:22;98287.41;;;9.78;100.00
37634;BME280;32048;49.902;22.508;2023-05-16T03:12:49;98281.16;;;9.79;100.00
37634;BME280;32048;49.902;22.508;2023-05-16T03:15:16;98280.19;;;9.82;100.00
37634;BME280;32048;49.902;22.508;2023-05-16T03:17:43;98284.22;;;9.88;100.00
37634;BME280;32048;49.902;22.508;2023-05-16T03:20:10;98293.59;;;9.93;100.00
37634;BME280;32048;49.902;22.508;2023-05-16T03:22:37;98291.47;;;10.00;100.00
37634;BME280;32048;49.902;22.508;2023-05-16T03:25:06;98291.78;;;10.10;100.00
37634;BME280;32048;49.902;22.508;2023-05-16T03:27:33;98296.53;;;10.19;100.00
37634;BME280;32048;49.902;22.508;2023-05-16T03:30:00;98302.06;;;10.30;100.00
37634;BME280;32048;49.902;22.508;2023-05-16T03:32:28;98304.84;;;10.43;100.00
37634;BME280;32048;49.902;22.508;2023-05-16T03:34:55;98312.72;;;10.59;100.00
37634;BME280;32048;49.902;22.508;2023-05-16T03:37:22;98309.72;;;10.79;100.00
37634;BME280;32048;49.902;22.508;2023-05-16T03:39:49;98310.41;;;10.97;100.00
37634;BME280;32048;49.902;22.508;2023-05-16T03:42:16;98311.16;;;11.14;100.00
37634;BME280;32048;49.902;22.508;2023-05-16T03:44:44;98324.38;;;11.28;100.00
37634;BME280;32048;49.902;22.508;2023-05-16T03:47:11;98327.78;;;11.44;100.00
37634;BME280;32048;49.902;22.508;2023-05-16T03:49:38;98318.78;;;11.61;100.00
37634;BME280;32048;49.902;22.508;2023-05-16T03:52:05;98323.19;;;11.75;100.00
37634;BME280;32048;49.902;22.508;2023-05-16T03:54:32;98333.19;;;11.84;100.00
37634;BME280;32048;49.902;22.508;2023-05-16T03:56:59;98329.91;;;11.95;100.00
37634;BME280;32048;49.902;22.508;2023-05-16T03:59:27;98318.28;;;12.11;100.00
37634;BME280;32048;49.902;22.508;2023-05-16T04:01:54;98320.06;;;12.24;100.00
37634;BME280;32048;49.902;22.508;2023-05-16T04:04:21;98329.34;;;12.44;100.00
37634;BME280;32048;49.902;22.508;2023-05-16T04:06:48;98317.69;;;12.60;100.00
37634;BME280;32048;49.902;22.508;2023-05-16T04:09:15;98326.41;;;12.75;100.00
37634;BME280;32048;49.902;22.508;2023-05-16T04:11:42;98328.78;;;12.92;100.00
37634;BME280;32048;49.902;22.508;2023-05-16T04:14:09;98329.31;;;13.10;100.00
37634;BME280;32048;49.902;22.508;2023-05-16T04:16:35;98333.41;;;13.27;100.00
37634;BME280;32048;49.902;22.508;2023-05-16T04:19:03;98331.72;;;13.51;100.00
37634;BME280;32048;49.902;22.508;2023-05-16T04:21:30;98329.97;;;13.76;100.00
37634;BME280;32048;49.902;22.508;2023-05-16T04:23:57;98335.97;;;14.04;100.00
37634;BME280;32048;49.902;22.508;2023-05-16T04:26:24;98331.38;;;14.30;100.00
37634;BME280;32048;49.902;22.508;2023-05-16T04:28:53;98334.38;;;14.49;100.00
37634;BME280;32048;49.902;22.508;2023-05-16T04:31:20;98352.69;;;14.65;100.00
37634;BME280;32048;49.902;22.508;2023-05-16T04:33:48;98342.88;;;14.90;100.00
37634;BME280;32048;49.902;22.508;2023-05-16T04:36:15;98334.09;;;15.23;100.00
37634;BME280;32048;49.902;22.508;2023-05-16T04:38:42;98332.66;;;15.64;100.00
37634;BME280;32048;49.902;22.508;2023-05-16T04:41:09;98330.31;;;16.05;100.00
37634;BME280;32048;49.902;22.508;2023-05-16T04:43:36;98323.09;;;16.39;100.00
37634;BME280;32048;49.902;22.508;2023-05-16T04:46:03;98334.72;;;16.59;100.00
37634;BME280;32048;49.902;22.508;2023-05-16T04:48:31;98328.84;;;16.76;100.00
37634;BME280;32048;49.902;22.508;2023-05-16T04:50:58;98336.91;;;16.97;100.00
37634;BME280;32048;49.902;22.508;2023-05-16T04:53:25;98335.56;;;17.13;100.00
37634;BME280;32048;49.902;22.508;2023-05-16T04:55:52;98339.59;;;17.28;100.00
37634;BME280;32048;49.902;22.508;2023-05-16T04:58:19;98347.97;;;17.44;100.00
37634;BME280;32048;49.902;22.508;2023-05-16T05:00:46;98356.03;;;17.54;96.17
37634;BME280;32048;49.902;22.508;2023-05-16T05:03:13;98360.03;;;17.70;97.37
37634;BME280;32048;49.902;22.508;2023-05-16T05:05:40;98369.78;;;17.80;93.57
37634;BME280;32048;49.902;22.508;2023-05-16T05:08:07;98367.09;;;17.80;90.06
37634;BME280;32048;49.902;22.508;2023-05-16T05:10:34;98374.81;;;17.74;90.59
37634;BME280;32048;49.902;22.508;2023-05-16T05:13:01;98368.03;;;17.70;90.24
37634;BME280;32048;49.902;22.508;2023-05-16T05:15:28;98366.72;;;17.64;90.72
37634;BME280;32048;49.902;22.508;2023-05-16T05:17:55;98362.19;;;17.55;90.17
37634;BME280;32048;49.902;22.508;2023-05-16T05:20:22;98366.66;;;17.44;91.57
37634;BME280;32048;49.902;22.508;2023-05-16T05:22:49;98368.75;;;17.41;91.56
37634;BME280;32048;49.902;22.508;2023-05-16T05:25:16;98368.84;;;17.39;90.98
37634;BME280;32048;49.902;22.508;2023-05-16T05:27:43;98378.06;;;17.47;92.85
37634;BME280;32048;49.902;22.508;2023-05-16T05:30:10;98384.41;;;17.55;91.85
37634;BME280;32048;49.902;22.508;2023-05-16T05:32:37;98385.88;;;17.69;92.43
37634;BME280;32048;49.902;22.508;2023-05-16T05:35:04;98373.69;;;17.76;89.98
37634;BME280;32048;49.902;22.508;2023-05-16T05:37:32;98379.28;;;18.04;93.35
37634;BME280;32048;49.902;22.508;2023-05-16T05:39:59;98387.06;;;18.17;85.51
37634;BME280;32048;49.902;22.508;2023-05-16T05:42:26;98410.69;;;18.12;87.29
37634;BME280;32048;49.902;22.508;2023-05-16T05:44:53;98405.19;;;18.13;89.34
37634;BME280;32048;49.902;22.508;2023-05-16T05:47:20;98389.69;;;18.07;88.19
37634;BME280;32048;49.902;22.508;2023-05-16T05:49:47;98399.13;;;18.01;88.94
37634;BME280;32048;49.902;22.508;2023-05-16T05:52:14;98402.00;;;17.89;86.16
37634;BME280;32048;49.902;22.508;2023-05-16T05:54:41;98406.69;;;17.75;85.94
37634;BME280;32048;49.902;22.508;2023-05-16T05:57:08;98406.22;;;17.60;87.19
37634;BME280;32048;49.902;22.508;2023-05-16T05:59:35;98399.88;;;17.61;88.68
37634;BME280;32048;49.902;22.508;2023-05-16T06:02:02;98391.25;;;17.79;90.49
37634;BME280;32048;49.902;22.508;2023-05-16T06:04:29;98378.44;;;18.03;87.94
37634;BME280;32048;49.902;22.508;2023-05-16T06:06:56;98374.53;;;18.17;84.98
37634;BME280;32048;49.902;22.508;2023-05-16T06:09:23;98374.28;;;18.30;84.17
37634;BME280;32048;49.902;22.508;2023-05-16T06:11:50;98388.09;;;18.35;79.36
37634;BME280;32048;49.902;22.508;2023-05-16T06:14:18;98402.28;;;18.26;79.21
37634;BME280;32048;49.902;22.508;2023-05-16T06:16:45;98404.94;;;18.26;80.22
37634;BME280;32048;49.902;22.508;2023-05-16T06:19:12;98418.91;;;18.30;82.14
37634;BME280;32048;49.902;22.508;2023-05-16T06:21:42;98431.81;;;18.24;82.71
37634;BME280;32048;49.902;22.508;2023-05-16T06:24:09;98426.44;;;18.15;83.18
37634;BME280;32048;49.902;22.508;2023-05-16T06:26:37;98427.38;;;18.04;83.17
37634;BME280;32048;49.902;22.508;2023-05-16T06:29:03;98434.38;;;17.95;81.85
37634;BME280;32048;49.902;22.508;2023-05-16T06:31:30;98429.38;;;17.81;82.04
37634;BME280;32048;49.902;22.508;2023-05-16T06:33:57;98424.91;;;17.81;83.23
37634;BME280;32048;49.902;22.508;2023-05-16T06:36:25;98434.91;;;17.89;82.14
37634;BME280;32048;49.902;22.508;2023-05-16T06:38:51;98441.03;;;18.01;82.87
37634;BME280;32048;49.902;22.508;2023-05-16T06:41:18;98432.44;;;18.07;80.42
37634;BME280;32048;49.902;22.508;2023-05-16T06:43:46;98429.63;;;17.99;77.94
37634;BME280;32048;49.902;22.508;2023-05-16T06:46:14;98430.75;;;17.96;80.36
37634;BME280;32048;49.902;22.508;2023-05-16T06:48:41;98443.09;;;17.97;79.91
37634;BME280;32048;49.902;22.508;2023-05-16T06:51:08;98451.03;;;18.08;78.89
37634;BME280;32048;49.902;22.508;2023-05-16T06:53:35;98448.25;;;18.20;79.11
37634;BME280;32048;49.902;22.508;2023-05-16T06:56:03;98456.03;;;18.33;76.58
37634;BME280;32048;49.902;22.508;2023-05-16T06:58:29;98454.22;;;18.43;76.58
37634;BME280;32048;49.902;22.508;2023-05-16T07:00:57;98447.50;;;18.48;75.95
37634;BME280;32048;49.902;22.508;2023-05-16T07:03:24;98442.44;;;18.55;75.97
37634;BME280;32048;49.902;22.508;2023-05-16T07:05:51;98450.34;;;18.66;75.69
37634;BME280;32048;49.902;22.508;2023-05-16T07:08:18;98457.53;;;18.76;72.32
37634;BME280;32048;49.902;22.508;2023-05-16T07:10:45;98449.34;;;18.67;69.45
37634;BME280;32048;49.902;22.508;2023-05-16T07:13:12;98437.50;;;18.60;70.93
37634;BME280;32048;49.902;22.508;2023-05-16T07:15:39;98441.44;;;18.56;70.79
37634;BME280;32048;49.902;22.508;2023-05-16T07:18:06;98448.50;;;18.67;71.52
37634;BME280;32048;49.902;22.508;2023-05-16T07:20:34;98444.59;;;18.81;69.80
37634;BME280;32048;49.902;22.508;2023-05-16T07:23:00;98451.25;;;18.96;70.81
37634;BME280;32048;49.902;22.508;2023-05-16T07:25:28;98452.50;;;19.21;71.50
37634;BME280;32048;49.902;22.508;2023-05-16T07:27:55;98457.16;;;19.48;68.45
37634;BME280;32048;49.902;22.508;2023-05-16T07:30:22;98455.25;;;19.78;67.76
37634;BME280;32048;49.902;22.508;2023-05-16T07:32:50;98454.25;;;19.89;63.42
37634;BME280;32048;49.902;22.508;2023-05-16T07:35:17;98453.63;;;19.95;62.34
37634;BME280;32048;49.902;22.508;2023-05-16T07:37:44;98454.03;;;20.10;63.76
37634;BME280;32048;49.902;22.508;2023-05-16T07:40:11;98454.00;;;20.38;61.73
37634;BME280;32048;49.902;22.508;2023-05-16T07:42:39;98456.31;;;20.60;59.78
37634;BME280;32048;49.902;22.508;2023-05-16T07:45:06;98442.63;;;20.81;60.79
37634;BME280;32048;49.902;22.508;2023-05-16T07:47:33;98447.53;;;21.04;62.07
37634;BME280;32048;49.902;22.508;2023-05-16T07:50:01;98446.28;;;21.34;61.11
37634;BME280;32048;49.902;22.508;2023-05-16T07:52:28;98445.34;;;21.61;56.67
37634;BME280;32048;49.902;22.508;2023-05-16T07:54:55;98439.06;;;21.78;57.40
37634;BME280;32048;49.902;22.508;2023-05-16T07:57:22;98442.72;;;21.95;54.75
37634;BME280;32048;49.902;22.508;2023-05-16T07:59:51;98452.38;;;22.14;55.32
37634;BME280;32048;49.902;22.508;2023-05-16T08:02:18;98447.69;;;22.59;53.89
37634;BME280;32048;49.902;22.508;2023-05-16T08:04:45;98444.28;;;22.99;51.34
37634;BME280;32048;49.902;22.508;2023-05-16T08:07:12;98439.41;;;23.36;50.96
37634;BME280;32048;49.902;22.508;2023-05-16T08:09:39;98446.63;;;23.68;49.71
37634;BME280;32048;49.902;22.508;2023-05-16T08:12:06;98449.03;;;24.19;49.62
37634;BME280;32048;49.902;22.508;2023-05-16T08:14:34;98450.41;;;24.62;43.66
37634;BME280;32048;49.902;22.508;2023-05-16T08:17:02;98464.97;;;24.53;43.04
37634;BME280;32048;49.902;22.508;2023-05-16T08:19:29;98457.47;;;24.24;44.50
37634;BME280;32048;49.902;22.508;2023-05-16T08:21:58;98455.75;;;24.31;45.97
37634;BME280;32048;49.902;22.508;2023-05-16T08:24:25;98456.53;;;24.48;45.13
37634;BME280;32048;49.902;22.508;2023-05-16T08:26:52;98460.09;;;24.48;42.98
37634;BME280;32048;49.902;22.508;2023-05-16T08:29:20;98459.56;;;24.53;43.48
37634;BME280;32048;49.902;22.508;2023-05-16T08:31:47;98460.47;;;24.68;44.72
37634;BME280;32048;49.902;22.508;2023-05-16T08:34:14;98462.28;;;25.07;42.43
37634;BME280;32048;49.902;22.508;2023-05-16T08:36:41;98465.63;;;25.41;42.45
37634;BME280;32048;49.902;22.508;2023-05-16T08:39:08;98469.97;;;25.80;43.23
37634;BME280;32048;49.902;22.508;2023-05-16T08:41:38;98462.69;;;26.03;41.04
37634;BME280;32048;49.902;22.508;2023-05-16T08:44:05;98464.19;;;25.68;37.72
37634;BME280;32048;49.902;22.508;2023-05-16T08:46:32;98462.78;;;25.34;38.95
37634;BME280;32048;49.902;22.508;2023-05-16T08:49:03;98463.81;;;25.02;39.61
37634;BME280;32048;49.902;22.508;2023-05-16T08:51:33;98466.94;;;24.59;42.26
37634;BME280;32048;49.902;22.508;2023-05-16T08:54:10;98462.81;;;24.32;43.49
37634;BME280;32048;49.902;22.508;2023-05-16T08:56:42;98466.56;;;24.31;42.89
37634;BME280;32048;49.902;22.508;2023-05-16T08:59:10;98465.56;;;24.24;43.10
37634;BME280;32048;49.902;22.508;2023-05-16T09:01:40;98462.63;;;24.42;43.65
37634;BME280;32048;49.902;22.508;2023-05-16T09:04:08;98467.97;;;24.58;42.28
37634;BME280;32048;49.902;22.508;2023-05-16T09:06:36;98456.50;;;24.87;42.51
37634;BME280;32048;49.902;22.508;2023-05-16T09:09:03;98452.81;;;25.35;42.71
37634;BME280;32048;49.902;22.508;2023-05-16T09:11:33;98467.34;;;25.95;40.09
37634;BME280;32048;49.902;22.508;2023-05-16T09:14:02;98467.16;;;26.56;40.49
37634;BME280;32048;49.902;22.508;2023-05-16T09:16:31;98457.28;;;27.06;37.34
37634;BME280;32048;49.902;22.508;2023-05-16T09:18:59;98465.91;;;27.31;38.11
37634;BME280;32048;49.902;22.508;2023-05-16T09:21:27;98469.00;;;27.28;35.83
37634;BME280;32048;49.902;22.508;2023-05-16T09:23:55;98469.63;;;27.08;37.03
37634;BME280;32048;49.902;22.508;2023-05-16T09:26:22;98478.97;;;27.42;35.16
37634;BME280;32048;49.902;22.508;2023-05-16T09:28:52;98453.91;;;27.68;33.44
37634;BME280;32048;49.902;22.508;2023-05-16T09:31:22;98448.25;;;28.19;35.25
37634;BME280;32048;49.902;22.508;2023-05-16T09:33:54;98454.16;;;28.78;32.00
37634;BME280;32048;49.902;22.508;2023-05-16T09:36:22;98458.41;;;28.11;30.13
37634;BME280;32048;49.902;22.508;2023-05-16T09:38:50;98448.75;;;27.45;31.42
37634;BME280;32048;49.902;22.508;2023-05-16T09:41:17;98452.28;;;27.03;30.03
37634;BME280;32048;49.902;22.508;2023-05-16T09:43:44;98443.22;;;26.59;30.95
37634;BME280;32048;49.902;22.508;2023-05-16T09:46:14;98444.53;;;26.63;31.39
37634;BME280;32048;49.902;22.508;2023-05-16T09:48:45;98432.03;;;26.84;32.82
37634;BME280;32048;49.902;22.508;2023-05-16T09:51:12;98422.94;;;27.13;33.43
37634;BME280;32048;49.902;22.508;2023-05-16T09:53:40;98416.84;;;27.04;31.42
37634;BME280;32048;49.902;22.508;2023-05-16T09:56:10;98421.28;;;26.90;32.65
37634;BME280;32048;49.902;22.508;2023-05-16T09:58:38;98425.03;;;26.89;32.46
37634;BME280;32048;49.902;22.508;2023-05-16T10:01:05;98422.91;;;26.85;31.90
37634;BME280;32048;49.902;22.508;2023-05-16T10:03:33;98425.22;;;26.88;31.91
37634;BME280;32048;49.902;22.508;2023-05-16T10:06:01;98426.25;;;26.87;30.80
37634;BME280;32048;49.902;22.508;2023-05-16T10:08:30;98421.28;;;26.90;31.55
37634;BME280;32048;49.902;22.508;2023-05-16T10:10:57;98423.34;;;27.10;32.11
37634;BME280;32048;49.902;22.508;2023-05-16T10:13:28;98425.88;;;27.33;32.39
37634;BME280;32048;49.902;22.508;2023-05-16T10:15:55;98428.53;;;27.48;34.57
37634;BME280;32048;49.902;22.508;2023-05-16T10:18:29;98426.50;;;27.56;34.70
37634;BME280;32048;49.902;22.508;2023-05-16T10:20:57;98430.06;;;27.57;35.52
37634;BME280;32048;49.902;22.508;2023-05-16T10:23:27;98432.41;;;27.39;36.02
37634;BME280;32048;49.902;22.508;2023-05-16T10:25:54;98440.34;;;27.19;36.47
37634;BME280;32048;49.902;22.508;2023-05-16T10:28:23;98442.84;;;26.99;37.39
37634;BME280;32048;49.902;22.508;2023-05-16T10:30:50;98442.03;;;26.83;36.77
37634;BME280;32048;49.902;22.508;2023-05-16T10:33:17;98437.06;;;26.65;35.83
37634;BME280;32048;49.902;22.508;2023-05-16T10:35:45;98445.38;;;26.34;36.18
37634;BME280;32048;49.902;22.508;2023-05-16T10:38:14;98438.22;;;25.97;34.67
37634;BME280;32048;49.902;22.508;2023-05-16T10:40:43;98437.59;;;25.57;36.28
37634;BME280;32048;49.902;22.508;2023-05-16T10:43:12;98438.25;;;25.13;36.70
37634;BME280;32048;49.902;22.508;2023-05-16T10:45:52;98444.91;;;24.79;37.27
37634;BME280;32048;49.902;22.508;2023-05-16T10:48:27;98439.84;;;24.44;38.63
37634;BME280;32048;49.902;22.508;2023-05-16T10:50:54;98442.78;;;24.26;40.14
37634;BME280;32048;49.902;22.508;2023-05-16T10:55:49;98443.59;;;23.63;41.54
37634;BME280;32048;49.902;22.508;2023-05-16T10:58:18;98442.78;;;23.05;43.24
37634;BME280;32048;49.902;22.508;2023-05-16T11:00:48;98438.59;;;22.52;45.68
37634;BME280;32048;49.902;22.508;2023-05-16T11:03:21;98442.91;;;22.02;47.53
37634;BME280;32048;49.902;22.508;2023-05-16T11:05:51;98440.06;;;21.51;49.38
37634;BME280;32048;49.902;22.508;2023-05-16T11:08:19;98443.94;;;21.13;51.37
37634;BME280;32048;49.902;22.508;2023-05-16T11:10:46;98444.25;;;20.74;53.46
37634;BME280;32048;49.902;22.508;2023-05-16T11:13:14;98438.53;;;20.59;54.38
37634;BME280;32048;49.902;22.508;2023-05-16T11:15:45;98444.53;;;20.43;56.07
37634;BME280;32048;49.902;22.508;2023-05-16T11:18:15;98439.78;;;20.37;57.82
37634;BME280;32048;49.902;22.508;2023-05-16T11:20:43;98445.13;;;20.37;58.96
37634;BME280;32048;49.902;22.508;2023-05-16T11:23:17;98445.94;;;20.47;58.64
37634;BME280;32048;49.902;22.508;2023-05-16T11:25:44;98441.22;;;20.59;58.39
37634;BME280;32048;49.902;22.508;2023-05-16T11:28:12;98444.78;;;20.77;57.55
37634;BME280;32048;49.902;22.508;2023-05-16T11:30:43;98446.41;;;20.88;55.84
37634;BME280;32048;49.902;22.508;2023-05-16T11:33:11;98455.00;;;20.92;55.17
37634;BME280;32048;49.902;22.508;2023-05-16T11:35:39;98452.81;;;20.77;56.50
37634;BME280;32048;49.902;22.508;2023-05-16T11:38:10;98448.47;;;20.76;57.71
37634;BME280;32048;49.902;22.508;2023-05-16T11:40:40;98456.91;;;20.82;57.38
37634;BME280;32048;49.902;22.508;2023-05-16T11:43:08;98445.00;;;20.84;56.68
37634;BME280;32048;49.902;22.508;2023-05-16T11:45:34;98439.25;;;20.79;56.16
37634;BME280;32048;49.902;22.508;2023-05-16T11:48:02;98449.53;;;20.84;57.02
37634;BME280;32048;49.902;22.508;2023-05-16T11:50:33;98441.88;;;20.89;57.96
37634;BME280;32048;49.902;22.508;2023-05-16T11:53:01;98445.25;;;20.91;56.67
37634;BME280;32048;49.902;22.508;2023-05-16T11:55:28;98440.09;;;20.80;57.21
37634;BME280;32048;49.902;22.508;2023-05-16T11:58:08;98435.88;;;20.59;59.29
37634;BME280;32048;49.902;22.508;2023-05-16T12:03:03;98437.44;;;20.52;59.76
37634;BME280;32048;49.902;22.508;2023-05-16T12:05:31;98438.81;;;20.56;60.21
37634;BME280;32048;49.902;22.508;2023-05-16T12:08:01;98431.34;;;20.60;60.63
37634;BME280;32048;49.902;22.508;2023-05-16T12:10:31;98432.13;;;20.70;60.26
37634;BME280;32048;49.902;22.508;2023-05-16T12:13:01;98423.16;;;20.79;59.57
37634;BME280;32048;49.902;22.508;2023-05-16T12:15:29;98422.09;;;20.90;60.23
37634;BME280;32048;49.902;22.508;2023-05-16T12:17:57;98419.47;;;20.98;59.73
37634;BME280;32048;49.902;22.508;2023-05-16T12:20:24;98422.84;;;21.00;58.76
37634;BME280;32048;49.902;22.508;2023-05-16T12:22:52;98413.56;;;20.94;59.70
37634;BME280;32048;49.902;22.508;2023-05-16T12:25:20;98410.03;;;20.76;59.84
37634;BME280;32048;49.902;22.508;2023-05-16T12:27:47;98414.44;;;20.49;60.77
37634;BME280;32048;49.902;22.508;2023-05-16T12:30:17;98414.94;;;20.35;63.24
37634;BME280;32048;49.902;22.508;2023-05-16T12:32:44;98411.56;;;20.33;64.38
37634;BME280;32048;49.902;22.508;2023-05-16T12:35:12;98414.56;;;20.30;63.13
37634;BME280;32048;49.902;22.508;2023-05-16T12:37:39;98408.69;;;20.17;62.19
37634;BME280;32048;49.902;22.508;2023-05-16T12:40:09;98415.91;;;20.16;63.95
37634;BME280;32048;49.902;22.508;2023-05-16T12:42:38;98411.97;;;20.10;64.09
37634;BME280;32048;49.902;22.508;2023-05-16T12:45:05;98417.38;;;20.01;64.45
37634;BME280;32048;49.902;22.508;2023-05-16T12:47:40;98410.56;;;19.79;65.93
37634;BME280;32048;49.902;22.508;2023-05-16T12:50:08;98413.56;;;19.56;66.55
37634;BME280;32048;49.902;22.508;2023-05-16T12:52:36;98418.81;;;19.38;69.16
37634;BME280;32048;49.902;22.508;2023-05-16T12:55:03;98416.72;;;19.22;69.65
37634;BME280;32048;49.902;22.508;2023-05-16T12:57:30;98412.94;;;19.15;71.12
37634;BME280;32048;49.902;22.508;2023-05-16T13:00:00;98411.94;;;19.06;71.34
37634;BME280;32048;49.902;22.508;2023-05-16T13:02:27;98408.88;;;19.01;72.83
37634;BME280;32048;49.902;22.508;2023-05-16T13:04:54;98408.00;;;19.01;72.77
37634;BME280;32048;49.902;22.508;2023-05-16T13:07:22;98407.28;;;18.99;72.84
37634;BME280;32048;49.902;22.508;2023-05-16T13:09:48;98409.00;;;19.00;73.20
37634;BME280;32048;49.902;22.508;2023-05-16T13:12:16;98400.84;;;19.01;72.94
37634;BME280;32048;49.902;22.508;2023-05-16T13:14:42;98403.50;;;19.01;73.37
37634;BME280;32048;49.902;22.508;2023-05-16T13:17:10;98398.16;;;19.01;73.21
37634;BME280;32048;49.902;22.508;2023-05-16T13:19:37;98400.25;;;18.98;72.85